Honghai — XUBU8 — position and weather

sailwx.info

Track history (hours):
 
Tides and Currents Weather Stations Pressure Air Temp Water Temp Dewpoint Dewpoint Depression Visibility Wind Speed Wind Dir Waves Ship Positions

Honghai

Last reported at 2015-Apr-28 15:33 UTC. Time now 2015-Apr-28 19:53 UTC.
Position N 30°03' E 122°37'.

Length 72 m; draft 4.5 m.

Type: Cargo ship. MMSI: 515501000.

Date/timePositionNaut miles runAvg speedWind from/ knotsBaromVisibWave heightAir tempDewpointWater temp
2015-Apr-28 15:33N 30°03' E 122°37'1111.3
2015-Apr-28 14:33N 29°52' E 122°38'1511.5
2015-Apr-28 13:15N 29°37' E 122°35'912.0
2015-Apr-28 12:29N 29°30' E 122°28'  
2015-Apr-26 07:08N 29°33' E 122°30'6 9.7
2015-Apr-26 06:33N 29°38' E 122°34'1010.0
2015-Apr-26 05:33N 29°47' E 122°38'140 9.9
2015-Apr-25 15:28N 31°22' E 124°38'31010.4
2015-Apr-24 09:32N 33°45' E 130°04'30 9.0
2015-Apr-24 06:11N 33°57' E 130°38'222 9.2
2015-Apr-23 06:06N 34°37' E 135°01'4 7.8
2015-Apr-23 05:33N 34°36' E 135°06'9 9.0
2015-Apr-23 04:33N 34°37' E 135°17'6 5.6
2015-Apr-23 03:31N 34°43' E 135°20'0 0.0
2015-Apr-23 02:31N 34°43' E 135°20'0 0.0
2015-Apr-23 01:31N 34°43' E 135°20'0 0.0
2015-Apr-23 00:31N 34°43' E 135°20'0 0.0
2015-Apr-22 23:31N 34°43' E 135°20'0 0.0
2015-Apr-22 22:19N 34°43' E 135°20'0 0.0
2015-Apr-22 21:31N 34°43' E 135°20'0 0.0
2015-Apr-22 20:31N 34°43' E 135°20'0 0.0
2015-Apr-22 19:25N 34°43' E 135°20'0 0.0
2015-Apr-22 18:31N 34°43' E 135°20'0 0.0
2015-Apr-22 17:31N 34°43' E 135°20'0 0.0
2015-Apr-22 16:25N 34°43' E 135°20'0 0.0
2015-Apr-22 15:31N 34°43' E 135°20'0 0.0
2015-Apr-22 14:31N 34°43' E 135°20'0 0.0
2015-Apr-22 13:31N 34°43' E 135°20'0 0.0
2015-Apr-22 12:25N 34°43' E 135°20'0 0.1
2015-Apr-22 11:30N 34°43' E 135°20'0 0.0
2015-Apr-22 10:30N 34°43' E 135°20'0 0.0
2015-Apr-22 09:30N 34°43' E 135°20'0 0.0
2015-Apr-22 08:24N 34°43' E 135°20'0 0.1
2015-Apr-22 07:30N 34°43' E 135°20'0 0.0
2015-Apr-22 06:30N 34°43' E 135°20'0 0.0
2015-Apr-22 05:30N 34°43' E 135°20'0 0.0
2015-Apr-22 04:30N 34°43' E 135°20'0 0.0
2015-Apr-22 03:24N 34°43' E 135°20'0 0.0
2015-Apr-22 01:18N 34°43' E 135°20'0 0.0
2015-Apr-22 00:30N 34°43' E 135°20'0 0.0
2015-Apr-21 23:30N 34°43' E 135°20'0 0.0
2015-Apr-21 22:30N 34°43' E 135°20'1 1.0
2015-Apr-21 21:33N 34°42' E 135°21'2 2.0
2015-Apr-21 20:33N 34°40' E 135°20'0 0.0
2015-Apr-21 19:27N 34°40' E 135°20'0 0.1
2015-Apr-21 18:33N 34°40' E 135°20'8 8.3
2015-Apr-21 17:33N 34°35' E 135°12'  
Track history (hours):
 
Tides and Currents Weather Stations Pressure Air Temp Water Temp Dewpoint Dewpoint Depression Visibility Wind Speed Wind Dir Waves Ship Positions

Honghai

Last reported at 2015-Apr-28 15:33 UTC. Time now 2015-Apr-28 19:53 UTC.
Position N 30°03' E 122°37'.

Length 72 m; draft 4.5 m.

Type: Cargo ship. MMSI: 515501000.

Date/timePositionNaut miles runAvg speedWind from/ knotsBaromVisibWave heightAir tempDewpointWater temp
2015-Apr-28 15:33N 30°03' E 122°37'1111.3
2015-Apr-28 14:33N 29°52' E 122°38'1511.5
2015-Apr-28 13:15N 29°37' E 122°35'912.0
2015-Apr-28 12:29N 29°30' E 122°28'  
2015-Apr-26 07:08N 29°33' E 122°30'6 9.7
2015-Apr-26 06:33N 29°38' E 122°34'1010.0
2015-Apr-26 05:33N 29°47' E 122°38'140 9.9
2015-Apr-25 15:28N 31°22' E 124°38'31010.4
2015-Apr-24 09:32N 33°45' E 130°04'30 9.0
2015-Apr-24 06:11N 33°57' E 130°38'222 9.2
2015-Apr-23 06:06N 34°37' E 135°01'4 7.8
2015-Apr-23 05:33N 34°36' E 135°06'9 9.0
2015-Apr-23 04:33N 34°37' E 135°17'6 5.6
2015-Apr-23 03:31N 34°43' E 135°20'0 0.0
2015-Apr-23 02:31N 34°43' E 135°20'0 0.0
2015-Apr-23 01:31N 34°43' E 135°20'0 0.0
2015-Apr-23 00:31N 34°43' E 135°20'0 0.0
2015-Apr-22 23:31N 34°43' E 135°20'0 0.0
2015-Apr-22 22:19N 34°43' E 135°20'0 0.0
2015-Apr-22 21:31N 34°43' E 135°20'0 0.0
2015-Apr-22 20:31N 34°43' E 135°20'0 0.0
2015-Apr-22 19:25N 34°43' E 135°20'0 0.0
2015-Apr-22 18:31N 34°43' E 135°20'0 0.0
2015-Apr-22 17:31N 34°43' E 135°20'0 0.0
2015-Apr-22 16:25N 34°43' E 135°20'0 0.0
2015-Apr-22 15:31N 34°43' E 135°20'0 0.0
2015-Apr-22 14:31N 34°43' E 135°20'0 0.0
2015-Apr-22 13:31N 34°43' E 135°20'0 0.0
2015-Apr-22 12:25N 34°43' E 135°20'0 0.1
2015-Apr-22 11:30N 34°43' E 135°20'0 0.0
2015-Apr-22 10:30N 34°43' E 135°20'0 0.0
2015-Apr-22 09:30N 34°43' E 135°20'0 0.0
2015-Apr-22 08:24N 34°43' E 135°20'0 0.1
2015-Apr-22 07:30N 34°43' E 135°20'0 0.0
2015-Apr-22 06:30N 34°43' E 135°20'0 0.0
2015-Apr-22 05:30N 34°43' E 135°20'0 0.0
2015-Apr-22 04:30N 34°43' E 135°20'0 0.0
2015-Apr-22 03:24N 34°43' E 135°20'0 0.0
2015-Apr-22 01:18N 34°43' E 135°20'0 0.0
2015-Apr-22 00:30N 34°43' E 135°20'0 0.0
2015-Apr-21 23:30N 34°43' E 135°20'0 0.0
2015-Apr-21 22:30N 34°43' E 135°20'1 1.0
2015-Apr-21 21:33N 34°42' E 135°21'2 2.0
2015-Apr-21 20:33N 34°40' E 135°20'0 0.0
2015-Apr-21 19:27N 34°40' E 135°20'0 0.1
2015-Apr-21 18:33N 34°40' E 135°20'8 8.3
2015-Apr-21 17:33N 34°35' E 135°12'  

Dump ship's entire track history